Sea Voyager — V7QU2 — position and weather

sailwx.info

Track history (hours):
 
Tides and Currents Weather Stations Pressure Air Temp Water Temp Dewpoint Dewpoint Depression Visibility Wind Speed Wind Dir Waves Ship Positions

Sea Voyager

Last reported at 2016-Jun-26 20:33 UTC. Time now 2016-Jun-26 20:56 UTC.
Position N 37°23' W 123°09'.

Length 243 m; draft 9.6 m.

Type: Ship (hazmat cat A). MMSI: 538003439.

Date/timePositionNaut miles runAvg speedWind from/ knotsBaromVisibWave heightAir tempDewpointWater temp
2016-Jun-26 20:33N 37°23' W 123°09'9 8.6
2016-Jun-26 19:33N 37°15' W 123°13'1212.3
2016-Jun-26 18:33N 37°03' W 123°10'1312.5
2016-Jun-26 17:33N 36°52' W 123°03'1212.3
2016-Jun-26 16:33N 36°41' W 122°56'1312.5
2016-Jun-26 15:33N 36°30' W 122°48'1212.3
2016-Jun-26 14:34N 36°19' W 122°42'1212.0
2016-Jun-26 13:33N 36°08' W 122°35'1312.5
2016-Jun-26 12:34N 35°57' W 122°28'1212.5
2016-Jun-26 11:33N 35°46' W 122°21'1312.6
2016-Jun-26 10:33N 35°34' W 122°14'1312.6
2016-Jun-26 09:33N 35°23' W 122°07'1313.0
2016-Jun-26 08:33N 35°12' W 121°60'1212.5
2016-Jun-26 07:34N 35°00' W 121°53'1212.3
2016-Jun-26 06:34N 34°49' W 121°46'1212.4
2016-Jun-26 05:33N 34°38' W 121°39'5011.8
2016-Jun-26 01:18N 33°54' W 121°10'911.6
2016-Jun-26 00:33N 33°47' W 121°04'1211.7
2016-Jun-25 23:33N 33°38' W 120°56'3712.3
2016-Jun-25 20:33N 33°07' W 120°31'1212.4
2016-Jun-25 19:33N 32°57' W 120°23'1312.5
2016-Jun-25 18:33N 32°46' W 120°15'1212.5
2016-Jun-25 17:33N 32°36' W 120°07'1212.4
2016-Jun-25 16:33N 32°26' W 119°58'1312.5
2016-Jun-25 15:33N 32°15' W 119°50'1312.5
2016-Jun-25 14:33N 32°05' W 119°41'1212.4
2016-Jun-25 13:33N 31°55' W 119°33'1212.3
2016-Jun-25 12:33N 31°45' W 119°24'2 1.6
2016-Jun-25 11:33N 31°45' W 119°23'4 1.9
2016-Jun-25 09:20N 31°50' W 119°22'2 2.7
2016-Jun-25 08:33N 31°51' W 119°23'2 1.8
2016-Jun-25 07:33N 31°53' W 119°25'4 1.9
2016-Jun-25 05:30N 31°56' W 119°28'2 2.2
2016-Jun-25 04:26N 31°57' W 119°30'2 2.4
2016-Jun-25 03:33N 31°59' W 119°32'3 2.8
2016-Jun-25 02:31N 32°01' W 119°34'5 4.6
2016-Jun-25 01:33N 32°04' W 119°38'6 6.1
2016-Jun-25 00:33N 32°08' W 119°43'3 3.3
2016-Jun-24 23:33N 32°10' W 119°46'2 1.9
2016-Jun-24 22:34N 32°12' W 119°46'3 2.6
2016-Jun-24 21:33N 32°14' W 119°47'2 2.4
2016-Jun-24 20:33N 32°15' W 119°44'9 8.7
2016-Jun-24 19:33N 32°15' W 119°34'1212.3
2016-Jun-24 18:33N 32°15' W 119°20'1312.6
2016-Jun-24 17:33N 32°15' W 119°05'1212.5
2016-Jun-24 16:33N 32°15' W 118°50'1212.5
2016-Jun-24 15:34N 32°15' W 118°35'1111.0
2016-Jun-24 14:33N 32°19' W 118°23'1312.8
2016-Jun-24 13:33N 32°31' W 118°18'1312.9
2016-Jun-24 12:34N 32°43' W 118°13'1312.8
2016-Jun-24 11:33N 32°55' W 118°07'1312.1
2016-Jun-24 10:27N 33°08' W 118°02'1011.7
2016-Jun-24 09:33N 33°18' W 118°06'1212.1
2016-Jun-24 08:33N 33°29' W 118°11'1211.6
2016-Jun-24 07:34N 33°41' W 118°12'3 3.4
2016-Jun-24 06:33N 33°44' W 118°10'0 0.0
2016-Jun-24 04:33N 33°44' W 118°10'0 0.0
2016-Jun-24 03:33N 33°44' W 118°10'0 0.0
2016-Jun-24 02:33N 33°44' W 118°10'0 0.0
2016-Jun-24 01:33N 33°44' W 118°10'0 0.0
2016-Jun-24 00:33N 33°44' W 118°10'0 0.0
2016-Jun-23 23:33N 33°44' W 118°10'0 0.0
2016-Jun-23 22:30N 33°44' W 118°10'0 0.1
2016-Jun-23 21:33N 33°44' W 118°10'0 0.1
2016-Jun-23 20:27N 33°44' W 118°11'1 0.7
2016-Jun-23 19:33N 33°44' W 118°11'3 3.0
2016-Jun-23 18:32N 33°46' W 118°13'0 0.0
2016-Jun-23 17:32N 33°46' W 118°13'0 0.0
2016-Jun-23 16:32N 33°46' W 118°13'0 0.0
2016-Jun-23 15:32N 33°46' W 118°13'0 0.0
2016-Jun-23 14:32N 33°46' W 118°13'0 0.0
2016-Jun-23 13:32N 33°46' W 118°13'0 0.0
2016-Jun-23 12:32N 33°46' W 118°13'0 0.0
2016-Jun-23 11:32N 33°46' W 118°13'0 0.0
2016-Jun-23 10:32N 33°46' W 118°13'0 0.0
2016-Jun-23 09:32N 33°46' W 118°13'0 0.0
2016-Jun-23 08:32N 33°46' W 118°13'0 0.0
2016-Jun-23 07:32N 33°46' W 118°13'0 0.0
2016-Jun-23 05:32N 33°46' W 118°13'0 0.0
2016-Jun-23 04:32N 33°46' W 118°13'0 0.0
2016-Jun-23 03:32N 33°46' W 118°13'0 0.0
2016-Jun-23 02:32N 33°46' W 118°13'0 0.0
2016-Jun-23 01:32N 33°46' W 118°13'0 0.0
2016-Jun-23 00:32N 33°46' W 118°13'0 0.0
2016-Jun-22 23:32N 33°46' W 118°13'0 0.0
2016-Jun-22 22:32N 33°46' W 118°13'0 0.0
2016-Jun-22 21:32N 33°46' W 118°13'0 0.0
2016-Jun-22 20:32N 33°46' W 118°13'0 0.0
2016-Jun-22 19:32N 33°46' W 118°13'0 0.0
2016-Jun-22 18:32N 33°46' W 118°13'0 0.0
2016-Jun-22 17:32N 33°46' W 118°13'0 0.0
2016-Jun-22 16:32N 33°46' W 118°13'0 0.0
2016-Jun-22 15:29N 33°46' W 118°13'0 0.0
2016-Jun-22 14:32N 33°46' W 118°13'0 0.0
2016-Jun-22 13:32N 33°46' W 118°13'0 0.0
2016-Jun-22 12:32N 33°46' W 118°13'0 0.0
2016-Jun-22 11:32N 33°46' W 118°13'0 0.0
2016-Jun-22 10:32N 33°46' W 118°13'0 0.0
2016-Jun-22 09:32N 33°46' W 118°13'0 0.0
2016-Jun-22 08:32N 33°46' W 118°13'0 0.0
2016-Jun-22 07:29N 33°46' W 118°13'0 0.0
2016-Jun-22 06:32N 33°46' W 118°13'0 0.0
2016-Jun-22 05:32N 33°46' W 118°13'0 0.0
2016-Jun-22 04:32N 33°46' W 118°13'0 0.0
2016-Jun-22 03:32N 33°46' W 118°13'0 0.0
2016-Jun-22 02:32N 33°46' W 118°13'0 0.0
2016-Jun-22 01:32N 33°46' W 118°13'0 0.0
2016-Jun-22 00:32N 33°46' W 118°13'0 0.0
2016-Jun-21 23:32N 33°46' W 118°13'0 0.0
2016-Jun-21 22:32N 33°46' W 118°13'0 0.0
2016-Jun-21 21:32N 33°46' W 118°13'0 0.0
2016-Jun-21 20:32N 33°46' W 118°13'0 0.0
2016-Jun-21 19:32N 33°46' W 118°13'0 0.0
2016-Jun-21 18:32N 33°46' W 118°13'0 0.0
2016-Jun-21 17:32N 33°46' W 118°13'0 0.0
2016-Jun-21 16:32N 33°46' W 118°13'0 0.0
2016-Jun-21 15:32N 33°46' W 118°13'0 0.0
2016-Jun-21 14:32N 33°46' W 118°13'0 0.0
2016-Jun-21 13:32N 33°46' W 118°13'0 0.0
2016-Jun-21 12:32N 33°46' W 118°13'0 0.0
2016-Jun-21 11:32N 33°46' W 118°13'0 0.0
2016-Jun-21 10:32N 33°46' W 118°13'0 0.0
2016-Jun-21 09:32N 33°46' W 118°13'0 0.0
2016-Jun-21 08:32N 33°46' W 118°13'0 0.0
2016-Jun-21 07:32N 33°46' W 118°13'0 0.0
2016-Jun-21 06:32N 33°46' W 118°13'1 0.3
2016-Jun-21 04:33N 33°46' W 118°13'4 4.2
2016-Jun-21 03:33N 33°42' W 118°11'2 2.2
2016-Jun-21 02:32N 33°42' W 118°08'0 0.1
2016-Jun-21 01:32N 33°42' W 118°08'0 0.1
2016-Jun-21 00:32N 33°42' W 118°08'0 0.0
2016-Jun-20 23:32N 33°42' W 118°08'0 0.0
2016-Jun-20 22:32N 33°42' W 118°08'0 0.0
2016-Jun-20 21:32N 33°42' W 118°08'0 0.0
2016-Jun-20 20:32N 33°42' W 118°08'0 0.0
2016-Jun-20 19:32N 33°42' W 118°08'0 0.0
2016-Jun-20 18:32N 33°42' W 118°08'0 0.1
2016-Jun-20 17:32N 33°42' W 118°08'0 0.1
2016-Jun-20 16:32N 33°42' W 118°08'0 0.0
2016-Jun-20 15:32N 33°42' W 118°08'0 0.2
2016-Jun-20 14:32N 33°42' W 118°08'2 1.6
2016-Jun-20 13:34N 33°40' W 118°09'7 7.0
2016-Jun-20 12:34N 33°33' W 118°09'1111.4
2016-Jun-20 11:34N 33°23' W 118°04'1111.1
2016-Jun-20 10:34N 33°12' W 118°00'1111.5
2016-Jun-20 09:34N 33°01' W 118°05'1212.1
2016-Jun-20 08:34N 32°49' W 118°09'1212.3
2016-Jun-20 07:34N 32°38' W 118°14'1212.4
2016-Jun-20 06:34N 32°26' W 118°19'1212.5
2016-Jun-20 05:34N 32°15' W 118°25'1312.5
2016-Jun-20 04:34N 32°03' W 118°31'1312.6
2016-Jun-20 03:34N 31°52' W 118°37'1312.5
2016-Jun-20 02:33N 31°40' W 118°43'1212.3
2016-Jun-20 01:34N 31°29' W 118°48'8 7.8
2016-Jun-20 00:33N 31°21' W 118°51'1212.1
2016-Jun-19 23:33N 31°10' W 118°55'1212.0
2016-Jun-19 22:34N 30°58' W 118°59'1211.6
2016-Jun-19 21:34N 30°47' W 119°03'1110.9
2016-Jun-19 20:33N 30°37' W 119°07'1110.8
2016-Jun-19 19:32N 30°26' W 119°10'2812.5
2016-Jun-19 17:19N 29°60' W 119°20'912.4
2016-Jun-19 16:33N 29°51' W 119°23'  
Track history (hours):
 
Tides and Currents Weather Stations Pressure Air Temp Water Temp Dewpoint Dewpoint Depression Visibility Wind Speed Wind Dir Waves Ship Positions

Sea Voyager

Last reported at 2016-Jun-26 20:33 UTC. Time now 2016-Jun-26 20:56 UTC.
Position N 37°23' W 123°09'.

Length 243 m; draft 9.6 m.

Type: Ship (hazmat cat A). MMSI: 538003439.

Date/timePositionNaut miles runAvg speedWind from/ knotsBaromVisibWave heightAir tempDewpointWater temp
2016-Jun-26 20:33N 37°23' W 123°09'9 8.6
2016-Jun-26 19:33N 37°15' W 123°13'1212.3
2016-Jun-26 18:33N 37°03' W 123°10'1312.5
2016-Jun-26 17:33N 36°52' W 123°03'1212.3
2016-Jun-26 16:33N 36°41' W 122°56'1312.5
2016-Jun-26 15:33N 36°30' W 122°48'1212.3
2016-Jun-26 14:34N 36°19' W 122°42'1212.0
2016-Jun-26 13:33N 36°08' W 122°35'1312.5
2016-Jun-26 12:34N 35°57' W 122°28'1212.5
2016-Jun-26 11:33N 35°46' W 122°21'1312.6
2016-Jun-26 10:33N 35°34' W 122°14'1312.6
2016-Jun-26 09:33N 35°23' W 122°07'1313.0
2016-Jun-26 08:33N 35°12' W 121°60'1212.5
2016-Jun-26 07:34N 35°00' W 121°53'1212.3
2016-Jun-26 06:34N 34°49' W 121°46'1212.4
2016-Jun-26 05:33N 34°38' W 121°39'5011.8
2016-Jun-26 01:18N 33°54' W 121°10'911.6
2016-Jun-26 00:33N 33°47' W 121°04'1211.7
2016-Jun-25 23:33N 33°38' W 120°56'3712.3
2016-Jun-25 20:33N 33°07' W 120°31'1212.4
2016-Jun-25 19:33N 32°57' W 120°23'1312.5
2016-Jun-25 18:33N 32°46' W 120°15'1212.5
2016-Jun-25 17:33N 32°36' W 120°07'1212.4
2016-Jun-25 16:33N 32°26' W 119°58'1312.5
2016-Jun-25 15:33N 32°15' W 119°50'1312.5
2016-Jun-25 14:33N 32°05' W 119°41'1212.4
2016-Jun-25 13:33N 31°55' W 119°33'1212.3
2016-Jun-25 12:33N 31°45' W 119°24'2 1.6
2016-Jun-25 11:33N 31°45' W 119°23'4 1.9
2016-Jun-25 09:20N 31°50' W 119°22'2 2.7
2016-Jun-25 08:33N 31°51' W 119°23'2 1.8
2016-Jun-25 07:33N 31°53' W 119°25'4 1.9
2016-Jun-25 05:30N 31°56' W 119°28'2 2.2
2016-Jun-25 04:26N 31°57' W 119°30'2 2.4
2016-Jun-25 03:33N 31°59' W 119°32'3 2.8
2016-Jun-25 02:31N 32°01' W 119°34'5 4.6
2016-Jun-25 01:33N 32°04' W 119°38'6 6.1
2016-Jun-25 00:33N 32°08' W 119°43'3 3.3
2016-Jun-24 23:33N 32°10' W 119°46'2 1.9
2016-Jun-24 22:34N 32°12' W 119°46'3 2.6
2016-Jun-24 21:33N 32°14' W 119°47'2 2.4
2016-Jun-24 20:33N 32°15' W 119°44'9 8.7
2016-Jun-24 19:33N 32°15' W 119°34'1212.3
2016-Jun-24 18:33N 32°15' W 119°20'1312.6
2016-Jun-24 17:33N 32°15' W 119°05'1212.5
2016-Jun-24 16:33N 32°15' W 118°50'1212.5
2016-Jun-24 15:34N 32°15' W 118°35'1111.0
2016-Jun-24 14:33N 32°19' W 118°23'1312.8
2016-Jun-24 13:33N 32°31' W 118°18'1312.9
2016-Jun-24 12:34N 32°43' W 118°13'1312.8
2016-Jun-24 11:33N 32°55' W 118°07'1312.1
2016-Jun-24 10:27N 33°08' W 118°02'1011.7
2016-Jun-24 09:33N 33°18' W 118°06'1212.1
2016-Jun-24 08:33N 33°29' W 118°11'1211.6
2016-Jun-24 07:34N 33°41' W 118°12'3 3.4
2016-Jun-24 06:33N 33°44' W 118°10'0 0.0
2016-Jun-24 04:33N 33°44' W 118°10'0 0.0
2016-Jun-24 03:33N 33°44' W 118°10'0 0.0
2016-Jun-24 02:33N 33°44' W 118°10'0 0.0
2016-Jun-24 01:33N 33°44' W 118°10'0 0.0
2016-Jun-24 00:33N 33°44' W 118°10'0 0.0
2016-Jun-23 23:33N 33°44' W 118°10'0 0.0
2016-Jun-23 22:30N 33°44' W 118°10'0 0.1
2016-Jun-23 21:33N 33°44' W 118°10'0 0.1
2016-Jun-23 20:27N 33°44' W 118°11'1 0.7
2016-Jun-23 19:33N 33°44' W 118°11'3 3.0
2016-Jun-23 18:32N 33°46' W 118°13'0 0.0
2016-Jun-23 17:32N 33°46' W 118°13'0 0.0
2016-Jun-23 16:32N 33°46' W 118°13'0 0.0
2016-Jun-23 15:32N 33°46' W 118°13'0 0.0
2016-Jun-23 14:32N 33°46' W 118°13'0 0.0
2016-Jun-23 13:32N 33°46' W 118°13'0 0.0
2016-Jun-23 12:32N 33°46' W 118°13'0 0.0
2016-Jun-23 11:32N 33°46' W 118°13'0 0.0
2016-Jun-23 10:32N 33°46' W 118°13'0 0.0
2016-Jun-23 09:32N 33°46' W 118°13'0 0.0
2016-Jun-23 08:32N 33°46' W 118°13'0 0.0
2016-Jun-23 07:32N 33°46' W 118°13'0 0.0
2016-Jun-23 05:32N 33°46' W 118°13'0 0.0
2016-Jun-23 04:32N 33°46' W 118°13'0 0.0
2016-Jun-23 03:32N 33°46' W 118°13'0 0.0
2016-Jun-23 02:32N 33°46' W 118°13'0 0.0
2016-Jun-23 01:32N 33°46' W 118°13'0 0.0
2016-Jun-23 00:32N 33°46' W 118°13'0 0.0
2016-Jun-22 23:32N 33°46' W 118°13'0 0.0
2016-Jun-22 22:32N 33°46' W 118°13'0 0.0
2016-Jun-22 21:32N 33°46' W 118°13'0 0.0
2016-Jun-22 20:32N 33°46' W 118°13'0 0.0
2016-Jun-22 19:32N 33°46' W 118°13'0 0.0
2016-Jun-22 18:32N 33°46' W 118°13'0 0.0
2016-Jun-22 17:32N 33°46' W 118°13'0 0.0
2016-Jun-22 16:32N 33°46' W 118°13'0 0.0
2016-Jun-22 15:29N 33°46' W 118°13'0 0.0
2016-Jun-22 14:32N 33°46' W 118°13'0 0.0
2016-Jun-22 13:32N 33°46' W 118°13'0 0.0
2016-Jun-22 12:32N 33°46' W 118°13'0 0.0
2016-Jun-22 11:32N 33°46' W 118°13'0 0.0
2016-Jun-22 10:32N 33°46' W 118°13'0 0.0
2016-Jun-22 09:32N 33°46' W 118°13'0 0.0
2016-Jun-22 08:32N 33°46' W 118°13'0 0.0
2016-Jun-22 07:29N 33°46' W 118°13'0 0.0
2016-Jun-22 06:32N 33°46' W 118°13'0 0.0
2016-Jun-22 05:32N 33°46' W 118°13'0 0.0
2016-Jun-22 04:32N 33°46' W 118°13'0 0.0
2016-Jun-22 03:32N 33°46' W 118°13'0 0.0
2016-Jun-22 02:32N 33°46' W 118°13'0 0.0
2016-Jun-22 01:32N 33°46' W 118°13'0 0.0
2016-Jun-22 00:32N 33°46' W 118°13'0 0.0
2016-Jun-21 23:32N 33°46' W 118°13'0 0.0
2016-Jun-21 22:32N 33°46' W 118°13'0 0.0
2016-Jun-21 21:32N 33°46' W 118°13'0 0.0
2016-Jun-21 20:32N 33°46' W 118°13'0 0.0
2016-Jun-21 19:32N 33°46' W 118°13'0 0.0
2016-Jun-21 18:32N 33°46' W 118°13'0 0.0
2016-Jun-21 17:32N 33°46' W 118°13'0 0.0
2016-Jun-21 16:32N 33°46' W 118°13'0 0.0
2016-Jun-21 15:32N 33°46' W 118°13'0 0.0
2016-Jun-21 14:32N 33°46' W 118°13'0 0.0
2016-Jun-21 13:32N 33°46' W 118°13'0 0.0
2016-Jun-21 12:32N 33°46' W 118°13'0 0.0
2016-Jun-21 11:32N 33°46' W 118°13'0 0.0
2016-Jun-21 10:32N 33°46' W 118°13'0 0.0
2016-Jun-21 09:32N 33°46' W 118°13'0 0.0
2016-Jun-21 08:32N 33°46' W 118°13'0 0.0
2016-Jun-21 07:32N 33°46' W 118°13'0 0.0
2016-Jun-21 06:32N 33°46' W 118°13'1 0.3
2016-Jun-21 04:33N 33°46' W 118°13'4 4.2
2016-Jun-21 03:33N 33°42' W 118°11'2 2.2
2016-Jun-21 02:32N 33°42' W 118°08'0 0.1
2016-Jun-21 01:32N 33°42' W 118°08'0 0.1
2016-Jun-21 00:32N 33°42' W 118°08'0 0.0
2016-Jun-20 23:32N 33°42' W 118°08'0 0.0
2016-Jun-20 22:32N 33°42' W 118°08'0 0.0
2016-Jun-20 21:32N 33°42' W 118°08'0 0.0
2016-Jun-20 20:32N 33°42' W 118°08'0 0.0
2016-Jun-20 19:32N 33°42' W 118°08'0 0.0
2016-Jun-20 18:32N 33°42' W 118°08'0 0.1
2016-Jun-20 17:32N 33°42' W 118°08'0 0.1
2016-Jun-20 16:32N 33°42' W 118°08'0 0.0
2016-Jun-20 15:32N 33°42' W 118°08'0 0.2
2016-Jun-20 14:32N 33°42' W 118°08'2 1.6
2016-Jun-20 13:34N 33°40' W 118°09'7 7.0
2016-Jun-20 12:34N 33°33' W 118°09'1111.4
2016-Jun-20 11:34N 33°23' W 118°04'1111.1
2016-Jun-20 10:34N 33°12' W 118°00'1111.5
2016-Jun-20 09:34N 33°01' W 118°05'1212.1
2016-Jun-20 08:34N 32°49' W 118°09'1212.3
2016-Jun-20 07:34N 32°38' W 118°14'1212.4
2016-Jun-20 06:34N 32°26' W 118°19'1212.5
2016-Jun-20 05:34N 32°15' W 118°25'1312.5
2016-Jun-20 04:34N 32°03' W 118°31'1312.6
2016-Jun-20 03:34N 31°52' W 118°37'1312.5
2016-Jun-20 02:33N 31°40' W 118°43'1212.3
2016-Jun-20 01:34N 31°29' W 118°48'8 7.8
2016-Jun-20 00:33N 31°21' W 118°51'1212.1
2016-Jun-19 23:33N 31°10' W 118°55'1212.0
2016-Jun-19 22:34N 30°58' W 118°59'1211.6
2016-Jun-19 21:34N 30°47' W 119°03'1110.9
2016-Jun-19 20:33N 30°37' W 119°07'1110.8
2016-Jun-19 19:32N 30°26' W 119°10'2812.5
2016-Jun-19 17:19N 29°60' W 119°20'912.4
2016-Jun-19 16:33N 29°51' W 119°23'  

Dump ship's entire track history